createdAt,value
2023-02-02T00:01:53.800Z,3.80
2023-02-02T00:06:58.691Z,4.00
2023-02-02T00:12:01.392Z,4.20
2023-02-02T00:17:04.054Z,4.30
2023-02-02T00:22:05.771Z,4.20
2023-02-02T00:27:08.886Z,4.10
2023-02-02T00:32:10.604Z,4.30
2023-02-02T00:37:12.314Z,4.50
2023-02-02T00:42:14.004Z,4.40
2023-02-02T00:47:16.776Z,4.30
2023-02-02T00:52:18.537Z,4.30
2023-02-02T00:57:20.216Z,4.40
2023-02-02T01:02:21.941Z,4.50
2023-02-02T01:07:23.747Z,4.50
2023-02-02T01:12:25.505Z,4.50
2023-02-02T01:17:27.208Z,4.60
2023-02-02T01:22:28.972Z,4.50
2023-02-02T01:27:30.729Z,4.60
2023-02-02T01:32:33.149Z,4.50
2023-02-02T01:37:34.839Z,4.50
2023-02-02T01:42:36.603Z,4.50
2023-02-02T01:47:52.963Z,4.30
2023-02-02T01:52:56.871Z,4.10
2023-02-02T01:58:24.863Z,4.10
2023-02-02T02:03:29.704Z,4.00
2023-02-02T02:08:33.620Z,4.00
2023-02-02T02:13:56.452Z,4.10
2023-02-02T02:19:16.653Z,4.20
2023-02-02T02:24:53.639Z,4.30
2023-02-02T02:30:32.087Z,4.40
2023-02-02T02:36:02.083Z,4.40
2023-02-02T02:41:20.788Z,4.40
2023-02-02T02:46:23.331Z,4.50
2023-02-02T02:51:43.792Z,4.60
2023-02-02T02:56:55.516Z,4.70
2023-02-02T03:02:00.201Z,4.80
2023-02-02T03:07:07.470Z,4.80
2023-02-02T03:12:09.582Z,4.90
2023-02-02T03:17:11.385Z,4.90
2023-02-02T03:22:13.078Z,4.90
2023-02-02T03:27:14.786Z,4.80
2023-02-02T03:32:16.813Z,4.80
2023-02-02T03:37:18.498Z,4.80
2023-02-02T03:42:20.256Z,4.80
2023-02-02T03:47:21.978Z,4.90
2023-02-02T03:52:24.231Z,4.90
2023-02-02T03:57:26.086Z,4.90
2023-02-02T04:02:27.825Z,4.90
2023-02-02T04:07:30.086Z,4.90
2023-02-02T04:12:31.928Z,4.70
2023-02-02T04:17:33.837Z,4.60
2023-02-02T04:22:35.592Z,4.50
2023-02-02T04:27:37.305Z,4.60
2023-02-02T04:32:39.215Z,4.70
2023-02-02T04:37:40.923Z,4.80
2023-02-02T04:42:42.599Z,4.80
2023-02-02T04:47:44.333Z,4.80
2023-02-02T04:52:46.093Z,4.80
2023-02-02T04:57:47.859Z,4.80
2023-02-02T05:02:49.571Z,4.70
2023-02-02T05:07:51.335Z,4.50
2023-02-02T05:12:53.934Z,4.50
2023-02-02T05:17:55.689Z,4.50
2023-02-02T05:22:57.397Z,4.40
2023-02-02T05:27:59.095Z,4.50
2023-02-02T05:33:00.874Z,4.60
2023-02-02T05:38:02.983Z,4.70
2023-02-02T05:43:04.970Z,4.70
2023-02-02T05:48:06.787Z,4.60
2023-02-02T05:53:09.451Z,4.50
2023-02-02T05:58:11.213Z,4.40
2023-02-02T06:03:13.276Z,4.40
2023-02-02T06:08:15.178Z,4.60
2023-02-02T06:13:16.991Z,4.80
2023-02-02T06:18:18.763Z,4.90
2023-02-02T06:23:20.463Z,4.90
2023-02-02T06:28:22.123Z,5.00
2023-02-02T06:33:23.841Z,5.10
2023-02-02T06:38:25.647Z,5.10
2023-02-02T06:43:27.946Z,5.10
2023-02-02T06:48:29.642Z,5.10
2023-02-02T06:53:32.454Z,5.20
2023-02-02T06:58:34.600Z,5.20
2023-02-02T07:03:36.920Z,5.20
2023-02-02T07:08:44.100Z,5.20
2023-02-02T07:13:46.672Z,5.30
2023-02-02T07:18:49.441Z,5.40
2023-02-02T07:23:51.509Z,5.40
2023-02-02T07:28:53.305Z,5.50
2023-02-02T07:33:55.084Z,5.50
2023-02-02T07:39:02.045Z,5.50
2023-02-02T07:44:05.085Z,5.50
2023-02-02T07:49:06.884Z,5.70
2023-02-02T07:54:08.894Z,5.80
2023-02-02T07:59:11.405Z,5.90
2023-02-02T08:04:13.140Z,5.90
2023-02-02T08:09:15.347Z,6.00
2023-02-02T08:14:17.039Z,6.10
2023-02-02T08:19:20.207Z,6.10
2023-02-02T08:24:22.468Z,6.10
2023-02-02T08:29:24.432Z,6.20
2023-02-02T08:34:26.138Z,6.00
2023-02-02T08:39:28.024Z,5.90
2023-02-02T08:44:45.223Z,6.10
2023-02-02T08:49:51.827Z,6.10
2023-02-02T08:54:53.781Z,6.40
2023-02-02T08:59:55.588Z,6.40
2023-02-02T09:04:57.359Z,6.30
2023-02-02T09:09:59.265Z,6.40
2023-02-02T09:15:01.138Z,6.60
2023-02-02T09:20:03.286Z,6.50
2023-02-02T09:25:05.346Z,6.70
2023-02-02T09:30:08.461Z,6.80
2023-02-02T09:35:10.228Z,6.90
2023-02-02T09:40:18.912Z,6.80
2023-02-02T09:45:32.623Z,6.90
2023-02-02T09:51:06.916Z,7.00
2023-02-02T09:56:18.610Z,7.10
2023-02-02T10:01:36.698Z,7.10
2023-02-02T10:06:48.261Z,7.10
2023-02-02T10:12:17.424Z,7.10
2023-02-02T10:17:53.063Z,7.20
2023-02-02T10:22:59.851Z,7.30
2023-02-02T10:28:11.928Z,7.50
2023-02-02T10:33:39.147Z,7.40
2023-02-02T10:39:00.583Z,7.40
2023-02-02T10:44:23.102Z,7.50
2023-02-02T10:49:34.654Z,7.30
2023-02-02T10:55:16.786Z,7.20
2023-02-02T11:00:39.951Z,7.20
2023-02-02T11:06:00.559Z,7.10
2023-02-02T11:11:21.285Z,7.20
2023-02-02T11:16:32.672Z,7.20
2023-02-02T11:21:41.017Z,7.30
2023-02-02T11:26:47.902Z,7.40
2023-02-02T11:31:49.889Z,7.60
2023-02-02T11:36:59.898Z,7.60
2023-02-02T11:42:22.667Z,7.70
2023-02-02T11:47:33.171Z,7.40
2023-02-02T11:52:37.325Z,7.50
2023-02-02T11:57:39.145Z,7.50
2023-02-02T12:02:49.709Z,7.20
2023-02-02T12:07:51.951Z,6.90
2023-02-02T12:13:02.278Z,6.70
2023-02-02T12:18:28.665Z,6.50
2023-02-02T12:24:01.638Z,6.60
2023-02-02T12:29:19.528Z,6.70
2023-02-02T12:34:42.935Z,7.20
2023-02-02T12:40:20.275Z,7.90
2023-02-02T12:45:37.246Z,7.80
2023-02-02T12:50:43.437Z,7.60
2023-02-02T12:55:53.513Z,7.50
2023-02-02T13:01:02.730Z,7.50
2023-02-02T13:06:13.392Z,7.10
2023-02-02T13:11:39.195Z,7.40
2023-02-02T13:16:48.759Z,7.50
2023-02-02T13:21:52.879Z,7.30
2023-02-02T13:26:58.572Z,7.30
2023-02-02T13:32:11.319Z,7.40
2023-02-02T13:37:28.169Z,7.30
2023-02-02T13:42:45.404Z,7.40
2023-02-02T13:47:58.451Z,7.30
2023-02-02T13:53:23.136Z,7.00
2023-02-02T13:58:38.917Z,7.00
2023-02-02T14:03:43.958Z,7.00
2023-02-02T14:08:59.605Z,7.00
2023-02-02T14:14:32.023Z,6.90
2023-02-02T14:19:33.699Z,7.20
2023-02-02T14:24:35.458Z,7.30
2023-02-02T14:29:58.691Z,7.30
2023-02-02T14:35:13.926Z,7.40
2023-02-02T14:40:15.686Z,7.60
2023-02-02T14:45:41.969Z,7.70
2023-02-02T14:50:59.995Z,7.80
2023-02-02T14:56:03.683Z,7.70
2023-02-02T15:01:17.501Z,7.60
2023-02-02T15:06:42.631Z,7.40
2023-02-02T15:12:02.570Z,7.30
2023-02-02T15:17:42.479Z,7.30
2023-02-02T15:22:48.151Z,7.20
2023-02-02T15:28:23.245Z,7.20
2023-02-02T15:33:37.812Z,7.20
2023-02-02T15:38:42.123Z,7.20
2023-02-02T15:43:44.644Z,7.20
2023-02-02T15:48:47.815Z,6.90
2023-02-02T15:53:52.044Z,6.80
2023-02-02T15:58:56.887Z,6.60
2023-02-02T16:04:21.884Z,6.20
2023-02-02T16:09:44.114Z,6.00
2023-02-02T16:14:48.292Z,5.90
2023-02-02T16:19:51.798Z,5.90
2023-02-02T16:24:57.723Z,5.80
2023-02-02T16:30:10.350Z,5.80
2023-02-02T16:35:36.343Z,5.80
2023-02-02T16:40:38.361Z,5.90
2023-02-02T16:45:49.224Z,6.00
2023-02-02T16:51:05.835Z,6.00
2023-02-02T16:56:09.024Z,6.00
2023-02-02T17:01:15.858Z,5.90
2023-02-02T17:06:25.460Z,5.70
2023-02-02T17:11:31.365Z,5.70
2023-02-02T17:16:33.315Z,5.50
2023-02-02T17:21:38.739Z,5.40
2023-02-02T17:26:40.641Z,5.30
2023-02-02T17:31:42.727Z,5.30
2023-02-02T17:36:44.696Z,5.30
2023-02-02T17:41:48.288Z,5.20
2023-02-02T17:46:50.349Z,5.10
2023-02-02T17:51:52.406Z,5.00
2023-02-02T17:56:55.031Z,5.00
2023-02-02T18:01:57.692Z,5.00
2023-02-02T18:06:59.801Z,5.10
2023-02-02T18:12:01.563Z,4.90
2023-02-02T18:17:03.471Z,4.90
2023-02-02T18:22:06.552Z,4.80
2023-02-02T18:27:08.979Z,4.80
2023-02-02T18:32:11.044Z,4.80
2023-02-02T18:37:13.092Z,4.80
2023-02-02T18:42:15.378Z,4.70
2023-02-02T18:47:17.154Z,4.80
2023-02-02T18:52:19.217Z,4.80
2023-02-02T18:57:22.480Z,4.90
2023-02-02T19:02:25.619Z,4.80
2023-02-02T19:07:46.254Z,4.80
2023-02-02T19:13:11.464Z,4.80
2023-02-02T19:18:21.976Z,4.80
2023-02-02T19:23:28.901Z,4.80
2023-02-02T19:28:31.426Z,4.80
2023-02-02T19:33:44.354Z,4.80
2023-02-02T19:38:46.951Z,4.80
2023-02-02T19:43:51.584Z,4.80
2023-02-02T19:49:12.064Z,4.80
2023-02-02T19:54:36.855Z,4.80
2023-02-02T19:59:39.201Z,4.80
2023-02-02T20:04:41.049Z,4.80
2023-02-02T20:09:44.093Z,4.80
2023-02-02T20:14:48.667Z,4.80
2023-02-02T20:19:50.631Z,4.80
2023-02-02T20:24:54.689Z,4.80
2023-02-02T20:30:01.558Z,4.80
2023-02-02T20:35:23.399Z,4.80
2023-02-02T20:40:28.681Z,4.90
2023-02-02T20:45:30.601Z,4.90
2023-02-02T20:50:32.649Z,4.90
2023-02-02T20:55:36.354Z,4.90
2023-02-02T21:00:39.363Z,5.00
2023-02-02T21:05:41.111Z,4.90
2023-02-02T21:10:42.847Z,4.90
2023-02-02T21:15:44.615Z,5.00
2023-02-02T21:20:46.443Z,5.00
2023-02-02T21:25:48.467Z,5.00
2023-02-02T21:30:50.335Z,5.10
2023-02-02T21:35:52.164Z,5.10
2023-02-02T21:40:56.278Z,5.10
2023-02-02T21:46:00.610Z,5.10
2023-02-02T21:51:39.187Z,5.10
2023-02-02T21:56:42.041Z,5.10
2023-02-02T22:01:45.223Z,5.10
2023-02-02T22:06:49.573Z,5.10
2023-02-02T22:11:51.346Z,5.10
2023-02-02T22:16:57.579Z,5.00
2023-02-02T22:22:23.817Z,5.00
2023-02-02T22:27:40.476Z,5.00
2023-02-02T22:32:42.426Z,5.00
2023-02-02T22:37:44.358Z,5.00
2023-02-02T22:42:46.224Z,4.90
2023-02-02T22:47:48.595Z,4.90
2023-02-02T22:52:50.740Z,4.90
2023-02-02T22:57:52.994Z,4.90
2023-02-02T23:02:55.746Z,4.90
2023-02-02T23:07:57.652Z,4.90
2023-02-02T23:12:59.631Z,4.90
2023-02-02T23:18:01.630Z,5.00
2023-02-02T23:23:03.559Z,5.10
2023-02-02T23:28:09.645Z,5.00
2023-02-02T23:33:11.669Z,4.90
2023-02-02T23:38:13.983Z,4.90
2023-02-02T23:43:15.727Z,4.80
2023-02-02T23:48:18.487Z,4.80
2023-02-02T23:53:20.378Z,4.80
2023-02-02T23:58:22.214Z,4.80
